Nantucket, MA

10:32 PM EDT on July 30, 2016 (GMT -0400)
Brant Point Nantucket | | Change Station

Elev 10 ft 41.29 °N, 70.10 °W | Updated 13 seconds ago

Fog
Fog
67.1 °F
Feels Like 67.1 °F
N
0.0
Wind Variable Wind from WSW
Gusts 0.0 mph

Today
High -- | Low -- °F
--% Chance of Precip.
Yesterday
High -- | Low -- °F
Precip. -- in
Pressure 30.09 in
Visibility 0.2 miles
Clouds
Dew Point 67 °F
Humidity 98%
Rainfall 0.00 in
Snow Depth Not available.
5:34 AM 7:58 PM
Waning Crescent, 9% visible
SPECI KACK 310202Z AUTO 00000KT 1/4SM R24/1400V2000FT FG VV002 19/18 A3009 RMK AO2 T01890183 TSNO
Pressure 30.09 in
Visibility 0.2 miles
Clouds
Dew Point 67 °F
Humidity 98%
Rainfall 0.00 in
Snow Depth Not available.
5:34 AM 7:58 PM
Waning Crescent, 9% visible
SPECI KACK 310202Z AUTO 00000KT 1/4SM R24/1400V2000FT FG VV002 19/18 A3009 RMK AO2 T01890183 TSNO

10-Day Weather Forecast

Almanac

Astronomy

Jul. 30, 2016 Rise Set
Actual Time
Civil Twilight
Nautical Twilight
Astronomical Twilight
Moon
Length of Visible Light
Length of Day
Tomorrow will be .
, % of the Moon is Illuminated

Today's Extremes

State Highs State Lows

Community

WunderPhotos

Upload Photos

1,928,714 photos uploaded!

WunderBlog® & News

Nearby

Air Quality

  Air Quality AQ Index Pollutant
Not available.

Snow Depth

Station Depth Elevation

Earthquake Activity

City Distance Mag. Time & Date
Minimum magnitude displayed is 2.5.

Coastal Water Temperatures

Place Temperature

Stations

Nearby Weather Stations

Station Location Temp. Windchill Dew Point Humidity Wind Precip. Elev Updated Type
                   

Watches & Warnings

There are currently no watches in effect.